sensor_id;sensor_type;location;lat;lon;timestamp;P1;durP1;ratioP1;P2;durP2;ratioP2
27489;SDS011;14925;51.026;13.752;2022-08-18T00:01:19;6.70;;;4.43;;
27489;SDS011;14925;51.026;13.752;2022-08-18T00:03:46;6.20;;;4.03;;
27489;SDS011;14925;51.026;13.752;2022-08-18T00:06:12;9.20;;;4.38;;
27489;SDS011;14925;51.026;13.752;2022-08-18T00:08:40;5.07;;;4.05;;
27489;SDS011;14925;51.026;13.752;2022-08-18T00:11:05;11.52;;;4.22;;
27489;SDS011;14925;51.026;13.752;2022-08-18T00:13:30;7.68;;;4.45;;
27489;SDS011;14925;51.026;13.752;2022-08-18T00:15:56;5.72;;;4.40;;
27489;SDS011;14925;51.026;13.752;2022-08-18T00:18:21;4.78;;;4.07;;
27489;SDS011;14925;51.026;13.752;2022-08-18T00:20:47;7.40;;;4.70;;
27489;SDS011;14925;51.026;13.752;2022-08-18T00:23:12;6.22;;;4.00;;
27489;SDS011;14925;51.026;13.752;2022-08-18T00:25:38;7.85;;;4.03;;
27489;SDS011;14925;51.026;13.752;2022-08-18T00:28:04;5.15;;;4.32;;
27489;SDS011;14925;51.026;13.752;2022-08-18T00:30:33;5.95;;;4.53;;
27489;SDS011;14925;51.026;13.752;2022-08-18T00:32:59;7.90;;;4.60;;
27489;SDS011;14925;51.026;13.752;2022-08-18T00:35:29;4.95;;;4.45;;
27489;SDS011;14925;51.026;13.752;2022-08-18T00:37:59;8.68;;;4.45;;
27489;SDS011;14925;51.026;13.752;2022-08-18T00:40:36;5.88;;;4.47;;
27489;SDS011;14925;51.026;13.752;2022-08-18T00:43:15;5.00;;;4.57;;
27489;SDS011;14925;51.026;13.752;2022-08-18T00:45:43;6.20;;;4.60;;
27489;SDS011;14925;51.026;13.752;2022-08-18T00:48:09;8.73;;;4.95;;
27489;SDS011;14925;51.026;13.752;2022-08-18T00:53:12;5.57;;;4.68;;
27489;SDS011;14925;51.026;13.752;2022-08-18T00:55:42;7.15;;;5.00;;
27489;SDS011;14925;51.026;13.752;2022-08-18T00:58:13;6.90;;;4.75;;
27489;SDS011;14925;51.026;13.752;2022-08-18T01:00:42;5.68;;;4.50;;
27489;SDS011;14925;51.026;13.752;2022-08-18T01:03:09;5.95;;;4.10;;
27489;SDS011;14925;51.026;13.752;2022-08-18T01:05:39;7.10;;;4.70;;
27489;SDS011;14925;51.026;13.752;2022-08-18T01:08:08;5.30;;;4.35;;
27489;SDS011;14925;51.026;13.752;2022-08-18T01:10:38;11.48;;;5.05;;
27489;SDS011;14925;51.026;13.752;2022-08-18T01:13:04;6.20;;;4.18;;
27489;SDS011;14925;51.026;13.752;2022-08-18T01:15:30;5.45;;;4.57;;
27489;SDS011;14925;51.026;13.752;2022-08-18T01:17:57;7.45;;;4.65;;
27489;SDS011;14925;51.026;13.752;2022-08-18T01:20:44;6.55;;;4.45;;
27489;SDS011;14925;51.026;13.752;2022-08-18T01:23:33;5.85;;;4.60;;
27489;SDS011;14925;51.026;13.752;2022-08-18T01:25:59;6.28;;;4.70;;
27489;SDS011;14925;51.026;13.752;2022-08-18T01:28:29;6.35;;;4.88;;
27489;SDS011;14925;51.026;13.752;2022-08-18T01:30:58;6.10;;;4.40;;
27489;SDS011;14925;51.026;13.752;2022-08-18T01:33:29;10.05;;;4.82;;
27489;SDS011;14925;51.026;13.752;2022-08-18T01:36:02;5.07;;;4.68;;
27489;SDS011;14925;51.026;13.752;2022-08-18T01:38:29;5.72;;;5.10;;
27489;SDS011;14925;51.026;13.752;2022-08-18T01:40:58;5.47;;;4.63;;
27489;SDS011;14925;51.026;13.752;2022-08-18T01:43:23;5.57;;;4.82;;
27489;SDS011;14925;51.026;13.752;2022-08-18T01:45:49;7.13;;;4.70;;
27489;SDS011;14925;51.026;13.752;2022-08-18T01:48:15;5.68;;;4.82;;
27489;SDS011;14925;51.026;13.752;2022-08-18T01:50:40;5.53;;;4.90;;
27489;SDS011;14925;51.026;13.752;2022-08-18T01:53:08;7.40;;;4.75;;
27489;SDS011;14925;51.026;13.752;2022-08-18T01:55:36;5.10;;;4.63;;
27489;SDS011;14925;51.026;13.752;2022-08-18T01:58:05;7.63;;;5.07;;
27489;SDS011;14925;51.026;13.752;2022-08-18T02:00:32;6.00;;;4.68;;
27489;SDS011;14925;51.026;13.752;2022-08-18T02:02:58;6.05;;;4.55;;
27489;SDS011;14925;51.026;13.752;2022-08-18T02:05:30;7.97;;;5.10;;
27489;SDS011;14925;51.026;13.752;2022-08-18T02:08:00;7.43;;;5.00;;
27489;SDS011;14925;51.026;13.752;2022-08-18T02:10:26;8.95;;;4.60;;
27489;SDS011;14925;51.026;13.752;2022-08-18T02:12:51;8.65;;;5.00;;
27489;SDS011;14925;51.026;13.752;2022-08-18T02:15:20;8.40;;;5.15;;
27489;SDS011;14925;51.026;13.752;2022-08-18T02:17:45;4.72;;;4.20;;
27489;SDS011;14925;51.026;13.752;2022-08-18T02:20:13;9.20;;;5.13;;
27489;SDS011;14925;51.026;13.752;2022-08-18T02:22:41;6.55;;;4.75;;
27489;SDS011;14925;51.026;13.752;2022-08-18T02:25:07;5.70;;;4.63;;
27489;SDS011;14925;51.026;13.752;2022-08-18T02:27:33;8.15;;;4.97;;
27489;SDS011;14925;51.026;13.752;2022-08-18T02:29:59;7.40;;;4.97;;
27489;SDS011;14925;51.026;13.752;2022-08-18T02:32:26;8.05;;;5.10;;
27489;SDS011;14925;51.026;13.752;2022-08-18T02:34:51;6.43;;;4.53;;
27489;SDS011;14925;51.026;13.752;2022-08-18T02:37:16;8.13;;;5.32;;
27489;SDS011;14925;51.026;13.752;2022-08-18T02:39:44;6.80;;;4.50;;
27489;SDS011;14925;51.026;13.752;2022-08-18T02:42:09;5.53;;;5.03;;
27489;SDS011;14925;51.026;13.752;2022-08-18T02:44:37;7.00;;;4.63;;
27489;SDS011;14925;51.026;13.752;2022-08-18T02:47:05;6.65;;;4.80;;
27489;SDS011;14925;51.026;13.752;2022-08-18T02:49:31;7.82;;;4.95;;
27489;SDS011;14925;51.026;13.752;2022-08-18T02:51:57;6.03;;;5.00;;
27489;SDS011;14925;51.026;13.752;2022-08-18T02:54:22;7.60;;;4.70;;
27489;SDS011;14925;51.026;13.752;2022-08-18T02:56:48;7.93;;;5.03;;
27489;SDS011;14925;51.026;13.752;2022-08-18T02:59:21;6.85;;;5.25;;
27489;SDS011;14925;51.026;13.752;2022-08-18T03:01:49;7.35;;;5.28;;
27489;SDS011;14925;51.026;13.752;2022-08-18T03:04:17;9.27;;;5.07;;
27489;SDS011;14925;51.026;13.752;2022-08-18T03:06:44;6.00;;;5.05;;
27489;SDS011;14925;51.026;13.752;2022-08-18T03:09:10;8.55;;;4.97;;
27489;SDS011;14925;51.026;13.752;2022-08-18T03:11:37;5.43;;;4.65;;
27489;SDS011;14925;51.026;13.752;2022-08-18T03:14:03;8.20;;;5.10;;
27489;SDS011;14925;51.026;13.752;2022-08-18T03:16:30;8.85;;;4.97;;
27489;SDS011;14925;51.026;13.752;2022-08-18T03:18:57;5.45;;;4.75;;
27489;SDS011;14925;51.026;13.752;2022-08-18T03:21:25;8.60;;;5.25;;
27489;SDS011;14925;51.026;13.752;2022-08-18T03:23:52;9.80;;;5.22;;
27489;SDS011;14925;51.026;13.752;2022-08-18T03:26:19;6.38;;;4.97;;
27489;SDS011;14925;51.026;13.752;2022-08-18T03:28:46;8.10;;;5.20;;
27489;SDS011;14925;51.026;13.752;2022-08-18T03:31:12;7.30;;;5.07;;
27489;SDS011;14925;51.026;13.752;2022-08-18T03:33:39;6.57;;;5.28;;
27489;SDS011;14925;51.026;13.752;2022-08-18T03:36:10;6.88;;;5.32;;
27489;SDS011;14925;51.026;13.752;2022-08-18T03:38:40;8.20;;;5.25;;
27489;SDS011;14925;51.026;13.752;2022-08-18T03:41:07;8.93;;;5.60;;
27489;SDS011;14925;51.026;13.752;2022-08-18T03:43:34;9.15;;;5.10;;
27489;SDS011;14925;51.026;13.752;2022-08-18T03:46:02;9.48;;;5.43;;
27489;SDS011;14925;51.026;13.752;2022-08-18T03:48:29;6.22;;;5.60;;
27489;SDS011;14925;51.026;13.752;2022-08-18T03:51:02;11.05;;;5.55;;
27489;SDS011;14925;51.026;13.752;2022-08-18T03:53:53;12.25;;;5.65;;
27489;SDS011;14925;51.026;13.752;2022-08-18T03:56:21;8.60;;;5.50;;
27489;SDS011;14925;51.026;13.752;2022-08-18T03:58:55;7.45;;;5.38;;
27489;SDS011;14925;51.026;13.752;2022-08-18T04:01:24;9.00;;;5.82;;
27489;SDS011;14925;51.026;13.752;2022-08-18T04:03:53;8.70;;;5.40;;
27489;SDS011;14925;51.026;13.752;2022-08-18T04:06:40;8.75;;;6.32;;
27489;SDS011;14925;51.026;13.752;2022-08-18T04:09:14;8.02;;;5.25;;
27489;SDS011;14925;51.026;13.752;2022-08-18T04:11:43;7.53;;;5.65;;
27489;SDS011;14925;51.026;13.752;2022-08-18T04:14:09;8.63;;;6.00;;
27489;SDS011;14925;51.026;13.752;2022-08-18T04:16:39;7.43;;;5.75;;
27489;SDS011;14925;51.026;13.752;2022-08-18T04:19:05;7.70;;;5.93;;
27489;SDS011;14925;51.026;13.752;2022-08-18T04:21:32;8.95;;;5.50;;
27489;SDS011;14925;51.026;13.752;2022-08-18T04:24:02;10.18;;;5.80;;
27489;SDS011;14925;51.026;13.752;2022-08-18T04:26:47;7.75;;;6.10;;
27489;SDS011;14925;51.026;13.752;2022-08-18T04:29:14;5.95;;;5.40;;
27489;SDS011;14925;51.026;13.752;2022-08-18T04:31:40;9.35;;;5.90;;
27489;SDS011;14925;51.026;13.752;2022-08-18T04:34:06;6.40;;;5.80;;
27489;SDS011;14925;51.026;13.752;2022-08-18T04:36:33;7.55;;;5.82;;
27489;SDS011;14925;51.026;13.752;2022-08-18T04:39:00;10.27;;;6.00;;
27489;SDS011;14925;51.026;13.752;2022-08-18T04:41:26;9.85;;;5.72;;
27489;SDS011;14925;51.026;13.752;2022-08-18T04:43:58;9.93;;;6.28;;
27489;SDS011;14925;51.026;13.752;2022-08-18T04:46:28;7.05;;;5.72;;
27489;SDS011;14925;51.026;13.752;2022-08-18T04:48:56;8.93;;;6.05;;
27489;SDS011;14925;51.026;13.752;2022-08-18T04:51:23;8.40;;;5.63;;
27489;SDS011;14925;51.026;13.752;2022-08-18T04:53:49;7.50;;;5.72;;
27489;SDS011;14925;51.026;13.752;2022-08-18T04:56:32;11.02;;;6.03;;
27489;SDS011;14925;51.026;13.752;2022-08-18T04:59:02;7.75;;;6.07;;
27489;SDS011;14925;51.026;13.752;2022-08-18T05:01:33;7.28;;;5.75;;
27489;SDS011;14925;51.026;13.752;2022-08-18T05:04:06;13.15;;;6.43;;
27489;SDS011;14925;51.026;13.752;2022-08-18T05:06:41;9.18;;;6.03;;
27489;SDS011;14925;51.026;13.752;2022-08-18T05:09:07;8.15;;;6.07;;
27489;SDS011;14925;51.026;13.752;2022-08-18T05:11:34;7.45;;;5.93;;
27489;SDS011;14925;51.026;13.752;2022-08-18T05:14:01;8.75;;;6.55;;
27489;SDS011;14925;51.026;13.752;2022-08-18T05:16:29;8.85;;;6.25;;
27489;SDS011;14925;51.026;13.752;2022-08-18T05:19:00;7.28;;;6.18;;
27489;SDS011;14925;51.026;13.752;2022-08-18T05:21:28;8.35;;;5.95;;
27489;SDS011;14925;51.026;13.752;2022-08-18T05:23:57;10.50;;;5.88;;
27489;SDS011;14925;51.026;13.752;2022-08-18T05:26:26;13.25;;;5.85;;
27489;SDS011;14925;51.026;13.752;2022-08-18T05:28:52;7.88;;;6.10;;
27489;SDS011;14925;51.026;13.752;2022-08-18T05:31:18;8.48;;;5.80;;
27489;SDS011;14925;51.026;13.752;2022-08-18T05:33:46;9.40;;;6.03;;
27489;SDS011;14925;51.026;13.752;2022-08-18T05:38:52;11.13;;;6.97;;
27489;SDS011;14925;51.026;13.752;2022-08-18T05:41:26;9.63;;;6.30;;
27489;SDS011;14925;51.026;13.752;2022-08-18T05:43:58;15.13;;;6.03;;
27489;SDS011;14925;51.026;13.752;2022-08-18T05:46:58;13.35;;;5.95;;
27489;SDS011;14925;51.026;13.752;2022-08-18T05:49:17;9.98;;;5.97;;
27489;SDS011;14925;51.026;13.752;2022-08-18T05:51:44;9.50;;;5.60;;
27489;SDS011;14925;51.026;13.752;2022-08-18T05:54:13;9.45;;;5.78;;
27489;SDS011;14925;51.026;13.752;2022-08-18T05:59:34;11.75;;;5.60;;
27489;SDS011;14925;51.026;13.752;2022-08-18T06:07:33;6.45;;;5.10;;
27489;SDS011;14925;51.026;13.752;2022-08-18T06:10:04;7.20;;;4.68;;
27489;SDS011;14925;51.026;13.752;2022-08-18T06:12:40;9.70;;;5.18;;
27489;SDS011;14925;51.026;13.752;2022-08-18T06:18:04;11.85;;;4.97;;
27489;SDS011;14925;51.026;13.752;2022-08-18T06:23:40;7.47;;;4.70;;
27489;SDS011;14925;51.026;13.752;2022-08-18T06:26:24;9.02;;;4.45;;
27489;SDS011;14925;51.026;13.752;2022-08-18T06:31:41;5.97;;;4.75;;
27489;SDS011;14925;51.026;13.752;2022-08-18T06:36:53;7.55;;;4.82;;
27489;SDS011;14925;51.026;13.752;2022-08-18T06:39:23;7.07;;;4.90;;
27489;SDS011;14925;51.026;13.752;2022-08-18T06:41:56;8.43;;;5.22;;
27489;SDS011;14925;51.026;13.752;2022-08-18T06:44:29;8.75;;;5.00;;
27489;SDS011;14925;51.026;13.752;2022-08-18T06:47:00;10.23;;;4.97;;
27489;SDS011;14925;51.026;13.752;2022-08-18T06:49:37;8.88;;;5.70;;
27489;SDS011;14925;51.026;13.752;2022-08-18T06:52:20;11.18;;;5.35;;
27489;SDS011;14925;51.026;13.752;2022-08-18T06:54:54;10.10;;;5.70;;
27489;SDS011;14925;51.026;13.752;2022-08-18T06:57:52;13.15;;;6.00;;
27489;SDS011;14925;51.026;13.752;2022-08-18T07:00:31;9.57;;;6.00;;
27489;SDS011;14925;51.026;13.752;2022-08-18T07:03:12;10.45;;;5.95;;
27489;SDS011;14925;51.026;13.752;2022-08-18T07:06:22;11.40;;;5.82;;
27489;SDS011;14925;51.026;13.752;2022-08-18T07:08:42;11.38;;;5.43;;
27489;SDS011;14925;51.026;13.752;2022-08-18T07:11:20;8.00;;;5.85;;
27489;SDS011;14925;51.026;13.752;2022-08-18T07:13:52;8.10;;;5.40;;
27489;SDS011;14925;51.026;13.752;2022-08-18T07:18:52;8.05;;;5.65;;
27489;SDS011;14925;51.026;13.752;2022-08-18T07:21:25;13.05;;;5.90;;
27489;SDS011;14925;51.026;13.752;2022-08-18T07:24:05;11.10;;;6.28;;
27489;SDS011;14925;51.026;13.752;2022-08-18T07:29:22;15.50;;;5.85;;
27489;SDS011;14925;51.026;13.752;2022-08-18T07:31:48;17.30;;;6.40;;
27489;SDS011;14925;51.026;13.752;2022-08-18T07:37:03;11.23;;;6.75;;
27489;SDS011;14925;51.026;13.752;2022-08-18T07:39:30;11.98;;;5.70;;
27489;SDS011;14925;51.026;13.752;2022-08-18T07:42:02;11.48;;;5.70;;
27489;SDS011;14925;51.026;13.752;2022-08-18T07:44:39;10.88;;;6.30;;
27489;SDS011;14925;51.026;13.752;2022-08-18T07:47:15;9.52;;;6.03;;
27489;SDS011;14925;51.026;13.752;2022-08-18T07:49:46;12.77;;;6.03;;
27489;SDS011;14925;51.026;13.752;2022-08-18T07:52:19;11.65;;;5.85;;
27489;SDS011;14925;51.026;13.752;2022-08-18T07:57:18;7.70;;;5.80;;
27489;SDS011;14925;51.026;13.752;2022-08-18T08:00:14;11.10;;;6.15;;
27489;SDS011;14925;51.026;13.752;2022-08-18T08:13:34;10.73;;;6.55;;
27489;SDS011;14925;51.026;13.752;2022-08-18T08:16:15;13.43;;;6.28;;
27489;SDS011;14925;51.026;13.752;2022-08-18T08:19:09;13.27;;;6.65;;
27489;SDS011;14925;51.026;13.752;2022-08-18T08:21:47;14.40;;;6.07;;
27489;SDS011;14925;51.026;13.752;2022-08-18T08:33:00;11.75;;;7.20;;
27489;SDS011;14925;51.026;13.752;2022-08-18T08:35:40;14.20;;;7.63;;
27489;SDS011;14925;51.026;13.752;2022-08-18T08:38:20;16.85;;;6.97;;
27489;SDS011;14925;51.026;13.752;2022-08-18T08:41:07;13.75;;;7.05;;
27489;SDS011;14925;51.026;13.752;2022-08-18T08:43:39;10.23;;;6.50;;
27489;SDS011;14925;51.026;13.752;2022-08-18T08:46:09;7.25;;;5.82;;
27489;SDS011;14925;51.026;13.752;2022-08-18T08:48:40;18.35;;;6.60;;
27489;SDS011;14925;51.026;13.752;2022-08-18T08:51:23;13.27;;;6.80;;
27489;SDS011;14925;51.026;13.752;2022-08-18T08:54:07;11.75;;;6.57;;
27489;SDS011;14925;51.026;13.752;2022-08-18T08:56:39;11.68;;;6.22;;
27489;SDS011;14925;51.026;13.752;2022-08-18T08:59:09;16.50;;;6.30;;
27489;SDS011;14925;51.026;13.752;2022-08-18T09:10:20;9.20;;;6.05;;
27489;SDS011;14925;51.026;13.752;2022-08-18T09:20:50;9.05;;;6.00;;
27489;SDS011;14925;51.026;13.752;2022-08-18T09:23:46;13.23;;;6.03;;
27489;SDS011;14925;51.026;13.752;2022-08-18T09:37:19;10.48;;;5.40;;
27489;SDS011;14925;51.026;13.752;2022-08-18T09:43:36;8.50;;;5.35;;
27489;SDS011;14925;51.026;13.752;2022-08-18T09:45:55;10.43;;;5.50;;
27489;SDS011;14925;51.026;13.752;2022-08-18T09:54:07;15.77;;;6.03;;
27489;SDS011;14925;51.026;13.752;2022-08-18T10:20:59;13.23;;;6.18;;
27489;SDS011;14925;51.026;13.752;2022-08-18T10:29:05;11.32;;;6.15;;
27489;SDS011;14925;51.026;13.752;2022-08-18T10:34:39;15.65;;;5.82;;
27489;SDS011;14925;51.026;13.752;2022-08-18T10:42:48;7.20;;;5.30;;
27489;SDS011;14925;51.026;13.752;2022-08-18T10:45:22;9.40;;;5.68;;
27489;SDS011;14925;51.026;13.752;2022-08-18T11:04:32;11.30;;;5.05;;
27489;SDS011;14925;51.026;13.752;2022-08-18T11:09:37;11.73;;;5.07;;
27489;SDS011;14925;51.026;13.752;2022-08-18T11:12:03;10.15;;;4.47;;
27489;SDS011;14925;51.026;13.752;2022-08-18T11:14:38;14.50;;;5.03;;
27489;SDS011;14925;51.026;13.752;2022-08-18T11:19:46;15.10;;;4.50;;
27489;SDS011;14925;51.026;13.752;2022-08-18T11:22:25;12.52;;;4.80;;
27489;SDS011;14925;51.026;13.752;2022-08-18T11:24:52;11.52;;;4.97;;
27489;SDS011;14925;51.026;13.752;2022-08-18T11:29:47;11.63;;;4.85;;
27489;SDS011;14925;51.026;13.752;2022-08-18T11:40:42;13.77;;;5.07;;
27489;SDS011;14925;51.026;13.752;2022-08-18T11:58:41;15.18;;;5.75;;
27489;SDS011;14925;51.026;13.752;2022-08-18T12:01:10;17.10;;;5.40;;
27489;SDS011;14925;51.026;13.752;2022-08-18T12:03:51;16.50;;;5.60;;
27489;SDS011;14925;51.026;13.752;2022-08-18T12:06:29;12.30;;;5.30;;
27489;SDS011;14925;51.026;13.752;2022-08-18T12:11:35;10.32;;;5.30;;
27489;SDS011;14925;51.026;13.752;2022-08-18T12:14:15;16.13;;;5.72;;
27489;SDS011;14925;51.026;13.752;2022-08-18T12:16:42;16.33;;;5.88;;
27489;SDS011;14925;51.026;13.752;2022-08-18T12:19:09;14.40;;;5.38;;
27489;SDS011;14925;51.026;13.752;2022-08-18T12:21:58;12.20;;;5.30;;
27489;SDS011;14925;51.026;13.752;2022-08-18T12:24:23;9.35;;;5.30;;
27489;SDS011;14925;51.026;13.752;2022-08-18T12:26:49;15.00;;;5.20;;
27489;SDS011;14925;51.026;13.752;2022-08-18T12:29:15;16.20;;;5.60;;
27489;SDS011;14925;51.026;13.752;2022-08-18T12:31:42;20.52;;;5.82;;
27489;SDS011;14925;51.026;13.752;2022-08-18T12:34:11;15.25;;;5.57;;
27489;SDS011;14925;51.026;13.752;2022-08-18T12:36:37;14.05;;;6.05;;
27489;SDS011;14925;51.026;13.752;2022-08-18T12:39:02;17.55;;;5.35;;
27489;SDS011;14925;51.026;13.752;2022-08-18T12:41:28;13.00;;;5.40;;
27489;SDS011;14925;51.026;13.752;2022-08-18T12:43:53;16.02;;;5.85;;
27489;SDS011;14925;51.026;13.752;2022-08-18T12:46:20;12.98;;;5.70;;
27489;SDS011;14925;51.026;13.752;2022-08-18T12:48:46;14.88;;;5.78;;
27489;SDS011;14925;51.026;13.752;2022-08-18T12:51:11;15.00;;;5.50;;
27489;SDS011;14925;51.026;13.752;2022-08-18T12:53:37;20.30;;;5.75;;
27489;SDS011;14925;51.026;13.752;2022-08-18T12:56:04;13.07;;;5.60;;
27489;SDS011;14925;51.026;13.752;2022-08-18T12:58:31;13.95;;;5.22;;
27489;SDS011;14925;51.026;13.752;2022-08-18T13:00:57;18.85;;;5.90;;
27489;SDS011;14925;51.026;13.752;2022-08-18T13:03:25;11.65;;;5.18;;
27489;SDS011;14925;51.026;13.752;2022-08-18T13:05:50;13.02;;;5.60;;
27489;SDS011;14925;51.026;13.752;2022-08-18T13:08:18;19.35;;;5.38;;
27489;SDS011;14925;51.026;13.752;2022-08-18T13:10:46;12.38;;;5.53;;
27489;SDS011;14925;51.026;13.752;2022-08-18T13:13:15;20.58;;;5.47;;
27489;SDS011;14925;51.026;13.752;2022-08-18T13:15:42;12.68;;;5.22;;
27489;SDS011;14925;51.026;13.752;2022-08-18T13:18:11;15.95;;;5.07;;
27489;SDS011;14925;51.026;13.752;2022-08-18T13:20:38;18.33;;;6.38;;
27489;SDS011;14925;51.026;13.752;2022-08-18T13:23:04;11.88;;;5.70;;
27489;SDS011;14925;51.026;13.752;2022-08-18T13:25:29;19.25;;;5.43;;
27489;SDS011;14925;51.026;13.752;2022-08-18T13:27:54;13.68;;;5.72;;
27489;SDS011;14925;51.026;13.752;2022-08-18T13:30:20;14.18;;;5.90;;
27489;SDS011;14925;51.026;13.752;2022-08-18T13:32:49;13.23;;;5.45;;
27489;SDS011;14925;51.026;13.752;2022-08-18T13:35:15;20.08;;;6.07;;
27489;SDS011;14925;51.026;13.752;2022-08-18T13:37:40;19.05;;;6.20;;
27489;SDS011;14925;51.026;13.752;2022-08-18T13:40:07;13.88;;;6.20;;
27489;SDS011;14925;51.026;13.752;2022-08-18T13:42:40;16.27;;;6.38;;
27489;SDS011;14925;51.026;13.752;2022-08-18T13:45:07;24.08;;;6.32;;
27489;SDS011;14925;51.026;13.752;2022-08-18T13:47:35;10.55;;;5.75;;
27489;SDS011;14925;51.026;13.752;2022-08-18T13:50:01;19.17;;;5.90;;
27489;SDS011;14925;51.026;13.752;2022-08-18T13:52:27;17.58;;;5.75;;
27489;SDS011;14925;51.026;13.752;2022-08-18T13:54:53;15.88;;;6.20;;
27489;SDS011;14925;51.026;13.752;2022-08-18T13:57:21;20.45;;;5.72;;
27489;SDS011;14925;51.026;13.752;2022-08-18T13:59:46;14.82;;;6.20;;
27489;SDS011;14925;51.026;13.752;2022-08-18T14:02:14;22.73;;;6.60;;
27489;SDS011;14925;51.026;13.752;2022-08-18T14:04:42;9.52;;;5.78;;
27489;SDS011;14925;51.026;13.752;2022-08-18T14:07:07;10.15;;;5.85;;
27489;SDS011;14925;51.026;13.752;2022-08-18T14:09:34;23.50;;;6.32;;
27489;SDS011;14925;51.026;13.752;2022-08-18T14:12:00;19.10;;;6.00;;
27489;SDS011;14925;51.026;13.752;2022-08-18T14:14:27;19.55;;;5.65;;
27489;SDS011;14925;51.026;13.752;2022-08-18T14:16:53;12.88;;;5.90;;
27489;SDS011;14925;51.026;13.752;2022-08-18T14:19:18;8.45;;;5.85;;
27489;SDS011;14925;51.026;13.752;2022-08-18T14:22:05;18.05;;;6.95;;
27489;SDS011;14925;51.026;13.752;2022-08-18T14:27:34;13.68;;;6.90;;
27489;SDS011;14925;51.026;13.752;2022-08-18T14:30:05;18.10;;;6.60;;
27489;SDS011;14925;51.026;13.752;2022-08-18T14:32:32;14.63;;;7.00;;
27489;SDS011;14925;51.026;13.752;2022-08-18T14:34:59;14.73;;;6.90;;
27489;SDS011;14925;51.026;13.752;2022-08-18T14:37:26;14.43;;;7.47;;
27489;SDS011;14925;51.026;13.752;2022-08-18T14:39:52;15.35;;;7.68;;
27489;SDS011;14925;51.026;13.752;2022-08-18T14:42:18;20.40;;;7.30;;
27489;SDS011;14925;51.026;13.752;2022-08-18T14:44:45;17.45;;;7.85;;
27489;SDS011;14925;51.026;13.752;2022-08-18T14:47:17;16.15;;;7.30;;
27489;SDS011;14925;51.026;13.752;2022-08-18T14:49:42;16.15;;;7.32;;
27489;SDS011;14925;51.026;13.752;2022-08-18T14:52:10;16.25;;;8.25;;
27489;SDS011;14925;51.026;13.752;2022-08-18T14:54:37;18.70;;;7.68;;
27489;SDS011;14925;51.026;13.752;2022-08-18T14:57:02;17.85;;;7.20;;
27489;SDS011;14925;51.026;13.752;2022-08-18T14:59:29;18.42;;;8.27;;
27489;SDS011;14925;51.026;13.752;2022-08-18T15:01:56;14.20;;;8.30;;
27489;SDS011;14925;51.026;13.752;2022-08-18T15:04:23;13.55;;;7.22;;
27489;SDS011;14925;51.026;13.752;2022-08-18T15:06:49;19.60;;;7.80;;
27489;SDS011;14925;51.026;13.752;2022-08-18T15:09:15;16.67;;;7.95;;
27489;SDS011;14925;51.026;13.752;2022-08-18T15:11:43;15.52;;;7.80;;
27489;SDS011;14925;51.026;13.752;2022-08-18T15:14:08;14.50;;;8.30;;
27489;SDS011;14925;51.026;13.752;2022-08-18T15:16:34;18.00;;;8.70;;
27489;SDS011;14925;51.026;13.752;2022-08-18T15:19:02;16.98;;;7.95;;
27489;SDS011;14925;51.026;13.752;2022-08-18T15:21:28;23.52;;;8.02;;
27489;SDS011;14925;51.026;13.752;2022-08-18T15:24:13;16.02;;;7.93;;
27489;SDS011;14925;51.026;13.752;2022-08-18T15:26:57;23.23;;;7.47;;
27489;SDS011;14925;51.026;13.752;2022-08-18T15:29:23;12.63;;;7.90;;
27489;SDS011;14925;51.026;13.752;2022-08-18T15:31:49;19.02;;;8.82;;
27489;SDS011;14925;51.026;13.752;2022-08-18T15:34:15;17.45;;;7.72;;
27489;SDS011;14925;51.026;13.752;2022-08-18T15:36:46;13.68;;;7.50;;
27489;SDS011;14925;51.026;13.752;2022-08-18T15:39:12;18.00;;;8.30;;
27489;SDS011;14925;51.026;13.752;2022-08-18T15:41:38;21.50;;;7.93;;
27489;SDS011;14925;51.026;13.752;2022-08-18T15:44:14;12.48;;;7.88;;
27489;SDS011;14925;51.026;13.752;2022-08-18T15:46:44;14.10;;;7.55;;
27489;SDS011;14925;51.026;13.752;2022-08-18T15:49:10;17.05;;;7.72;;
27489;SDS011;14925;51.026;13.752;2022-08-18T15:51:36;16.35;;;8.00;;
27489;SDS011;14925;51.026;13.752;2022-08-18T15:54:03;39.67;;;8.68;;
27489;SDS011;14925;51.026;13.752;2022-08-18T15:56:31;23.00;;;8.63;;
27489;SDS011;14925;51.026;13.752;2022-08-18T15:58:57;20.55;;;7.80;;
27489;SDS011;14925;51.026;13.752;2022-08-18T16:01:31;18.17;;;7.72;;
27489;SDS011;14925;51.026;13.752;2022-08-18T16:04:00;14.82;;;8.23;;
27489;SDS011;14925;51.026;13.752;2022-08-18T16:06:28;13.85;;;7.55;;
27489;SDS011;14925;51.026;13.752;2022-08-18T16:08:53;19.80;;;8.00;;
27489;SDS011;14925;51.026;13.752;2022-08-18T16:11:19;14.02;;;7.82;;
27489;SDS011;14925;51.026;13.752;2022-08-18T16:13:46;14.90;;;7.55;;
27489;SDS011;14925;51.026;13.752;2022-08-18T16:16:17;14.30;;;8.60;;
27489;SDS011;14925;51.026;13.752;2022-08-18T16:18:44;14.43;;;8.02;;
27489;SDS011;14925;51.026;13.752;2022-08-18T16:21:12;17.67;;;8.52;;
27489;SDS011;14925;51.026;13.752;2022-08-18T16:23:41;12.43;;;7.78;;
27489;SDS011;14925;51.026;13.752;2022-08-18T16:26:11;15.55;;;7.13;;
27489;SDS011;14925;51.026;13.752;2022-08-18T16:28:47;18.17;;;8.07;;
27489;SDS011;14925;51.026;13.752;2022-08-18T16:31:17;17.88;;;7.97;;
27489;SDS011;14925;51.026;13.752;2022-08-18T16:33:48;17.75;;;7.60;;
27489;SDS011;14925;51.026;13.752;2022-08-18T16:36:16;21.65;;;8.30;;
27489;SDS011;14925;51.026;13.752;2022-08-18T16:38:41;14.48;;;7.60;;
27489;SDS011;14925;51.026;13.752;2022-08-18T16:41:09;16.20;;;7.85;;
27489;SDS011;14925;51.026;13.752;2022-08-18T16:43:37;13.93;;;7.60;;
27489;SDS011;14925;51.026;13.752;2022-08-18T16:46:03;12.05;;;7.38;;
27489;SDS011;14925;51.026;13.752;2022-08-18T16:48:39;16.98;;;7.85;;
27489;SDS011;14925;51.026;13.752;2022-08-18T16:51:05;13.40;;;8.40;;
27489;SDS011;14925;51.026;13.752;2022-08-18T16:53:36;13.60;;;8.20;;
27489;SDS011;14925;51.026;13.752;2022-08-18T16:56:01;16.08;;;8.15;;
27489;SDS011;14925;51.026;13.752;2022-08-18T16:58:27;19.80;;;8.85;;
27489;SDS011;14925;51.026;13.752;2022-08-18T17:01:13;15.05;;;7.95;;
27489;SDS011;14925;51.026;13.752;2022-08-18T17:03:57;18.30;;;8.80;;
27489;SDS011;14925;51.026;13.752;2022-08-18T17:06:33;17.58;;;8.35;;
27489;SDS011;14925;51.026;13.752;2022-08-18T17:08:59;24.00;;;8.00;;
27489;SDS011;14925;51.026;13.752;2022-08-18T17:11:26;15.98;;;7.88;;
27489;SDS011;14925;51.026;13.752;2022-08-18T17:13:52;18.38;;;8.27;;
27489;SDS011;14925;51.026;13.752;2022-08-18T17:16:19;13.38;;;8.20;;
27489;SDS011;14925;51.026;13.752;2022-08-18T17:18:45;19.10;;;8.27;;
27489;SDS011;14925;51.026;13.752;2022-08-18T17:21:16;15.20;;;8.15;;
27489;SDS011;14925;51.026;13.752;2022-08-18T17:23:45;18.40;;;7.88;;
27489;SDS011;14925;51.026;13.752;2022-08-18T17:26:14;16.88;;;8.02;;
27489;SDS011;14925;51.026;13.752;2022-08-18T17:31:57;15.65;;;8.27;;
27489;SDS011;14925;51.026;13.752;2022-08-18T17:34:31;14.65;;;8.75;;
27489;SDS011;14925;51.026;13.752;2022-08-18T17:36:59;10.85;;;7.90;;
27489;SDS011;14925;51.026;13.752;2022-08-18T17:39:35;14.27;;;8.15;;
27489;SDS011;14925;51.026;13.752;2022-08-18T17:42:07;11.40;;;7.93;;
27489;SDS011;14925;51.026;13.752;2022-08-18T17:44:54;17.48;;;8.10;;
27489;SDS011;14925;51.026;13.752;2022-08-18T17:48:09;19.23;;;8.70;;
27489;SDS011;14925;51.026;13.752;2022-08-18T17:53:31;16.13;;;8.07;;